createdAt,value
2017-09-16T17:23:21.440Z,956.88
2017-09-16T17:24:02.027Z,956.93
2017-09-16T17:24:42.614Z,956.93
2017-09-16T17:25:23.201Z,956.88
2017-09-16T17:26:03.807Z,956.93
2017-09-16T17:26:44.378Z,956.92
2017-09-16T17:27:25.031Z,956.93
2017-09-16T17:28:05.649Z,956.92
2017-09-16T17:28:46.295Z,956.94
2017-09-16T17:29:26.857Z,956.94
2017-09-16T17:30:07.496Z,956.96
2017-09-16T17:30:48.074Z,956.98
2017-09-16T17:31:28.654Z,956.97
2017-09-16T17:32:09.230Z,956.99
2017-09-16T17:32:49.816Z,956.99
2017-09-16T17:33:30.397Z,957.04
2017-09-16T17:34:10.989Z,957.02
2017-09-16T17:34:51.567Z,957.04
2017-09-16T17:35:32.147Z,957.05
2017-09-16T17:36:12.733Z,957.03
2017-09-16T17:36:53.321Z,957.03
2017-09-16T17:37:33.905Z,957.08
2017-09-16T17:38:14.485Z,957.07
2017-09-16T17:38:55.067Z,957.06
2017-09-16T17:39:35.640Z,957.04
2017-09-16T17:40:16.220Z,957.08
2017-09-16T17:40:56.796Z,957.11
2017-09-16T17:41:37.372Z,957.14
2017-09-16T17:42:17.955Z,957.15
2017-09-16T17:42:58.535Z,957.15
2017-09-16T17:43:39.129Z,957.17
2017-09-16T17:44:19.696Z,957.2
2017-09-16T17:45:00.276Z,957.23
2017-09-16T17:45:40.861Z,957.22
2017-09-16T17:46:21.450Z,957.23
2017-09-16T17:47:02.028Z,957.28
2017-09-16T17:47:42.604Z,957.24
2017-09-16T17:48:37.809Z,957.28
2017-09-16T17:49:18.396Z,957.29
2017-09-16T17:49:58.986Z,957.31
2017-09-16T17:50:39.555Z,957.27
2017-09-16T17:51:20.136Z,957.3
2017-09-16T17:52:00.737Z,957.32
2017-09-16T17:52:41.287Z,957.38
2017-09-16T17:53:21.875Z,957.32
2017-09-16T17:54:02.460Z,957.38
2017-09-16T17:54:43.052Z,957.44
2017-09-16T17:55:23.648Z,957.44
2017-09-16T17:56:04.229Z,957.42
2017-09-16T17:56:44.812Z,957.45
2017-09-16T17:57:25.401Z,957.41
2017-09-16T17:58:05.982Z,957.45
2017-09-16T17:58:46.569Z,957.45
2017-09-16T17:59:27.146Z,957.44
2017-09-16T18:00:07.730Z,957.48
2017-09-16T18:00:48.304Z,957.45
2017-09-16T18:01:28.893Z,957.47
2017-09-16T18:02:09.470Z,957.5
2017-09-16T18:02:50.056Z,957.53
2017-09-16T18:03:30.642Z,957.5
2017-09-16T18:04:11.222Z,957.52
2017-09-16T18:04:51.803Z,957.55
2017-09-16T18:05:32.374Z,957.57
2017-09-16T18:06:12.954Z,957.57
2017-09-16T18:06:53.542Z,957.56
2017-09-16T18:07:34.125Z,957.58
2017-09-16T18:08:14.732Z,957.54
2017-09-16T18:08:55.315Z,957.58
2017-09-16T18:09:35.914Z,957.57
2017-09-16T18:10:16.497Z,957.62
2017-09-16T18:10:57.069Z,957.58
2017-09-16T18:11:37.650Z,957.54
2017-09-16T18:12:18.223Z,957.58
2017-09-16T18:12:58.812Z,957.56
2017-09-16T18:13:39.388Z,957.61
2017-09-16T18:14:19.964Z,957.59
2017-09-16T18:15:00.547Z,957.61
2017-09-16T18:15:41.128Z,957.62
2017-09-16T18:16:21.701Z,957.58
2017-09-16T18:17:02.285Z,957.6
2017-09-16T18:17:42.868Z,957.6
2017-09-16T18:18:23.450Z,957.55
2017-09-16T18:19:04.037Z,957.5
2017-09-16T18:19:44.626Z,957.52
2017-09-16T18:20:25.205Z,957.5
2017-09-16T18:21:05.793Z,957.49
2017-09-16T18:21:46.375Z,957.44
2017-09-16T18:22:26.958Z,957.4
2017-09-16T18:23:07.535Z,957.44
2017-09-16T18:23:48.116Z,957.41
2017-09-16T18:24:28.696Z,957.4
2017-09-16T18:25:09.291Z,957.42
2017-09-16T18:25:49.873Z,957.41
2017-09-16T18:26:30.442Z,957.37
2017-09-16T18:27:11.025Z,957.43
2017-09-16T18:27:51.605Z,957.41
2017-09-16T18:28:32.189Z,957.39
2017-09-16T18:29:12.770Z,957.42
2017-09-16T18:29:53.343Z,957.4
2017-09-16T18:30:33.930Z,957.39
2017-09-16T18:31:14.511Z,957.39
2017-09-16T18:31:55.098Z,957.38
2017-09-16T18:32:35.683Z,957.37
2017-09-16T18:33:16.264Z,957.33
2017-09-16T18:33:56.846Z,957.33
2017-09-16T18:34:37.436Z,957.34
2017-09-16T18:35:18.034Z,957.29
2017-09-16T18:35:58.631Z,957.34
2017-09-16T18:36:39.206Z,957.34
2017-09-16T18:37:19.792Z,957.33
2017-09-16T18:38:00.371Z,957.35
2017-09-16T18:38:40.958Z,957.33
2017-09-16T18:39:21.536Z,957.31
2017-09-16T18:40:02.119Z,957.36
2017-09-16T18:40:42.696Z,957.35
2017-09-16T18:41:23.280Z,957.38
2017-09-16T18:42:03.872Z,957.35
2017-09-16T18:42:44.457Z,957.4
2017-09-16T18:43:25.045Z,957.38
2017-09-16T18:44:05.629Z,957.38
2017-09-16T18:44:46.218Z,957.38
2017-09-16T18:45:26.796Z,957.4
2017-09-16T18:46:07.379Z,957.4
2017-09-16T18:46:47.966Z,957.4
2017-09-16T18:47:28.544Z,957.38
2017-09-16T18:48:09.132Z,957.38
2017-09-16T18:48:49.711Z,957.4
2017-09-16T18:49:30.285Z,957.39
2017-09-16T18:50:10.857Z,957.41
2017-09-16T18:50:51.447Z,957.39
2017-09-16T18:51:32.028Z,957.41
2017-09-16T18:52:12.606Z,957.44
2017-09-16T18:52:53.180Z,957.42
2017-09-16T18:53:33.763Z,957.43
2017-09-16T18:54:14.338Z,957.41
2017-09-16T18:54:54.920Z,957.44
2017-09-16T18:55:35.497Z,957.48
2017-09-16T18:56:16.081Z,957.46
2017-09-16T18:56:56.652Z,957.49
2017-09-16T18:57:37.238Z,957.42
2017-09-16T18:58:17.824Z,957.47
2017-09-16T18:58:58.404Z,957.46
2017-09-16T18:59:38.985Z,957.5
2017-09-16T19:00:19.568Z,957.51
2017-09-16T19:01:00.150Z,957.44
2017-09-16T19:01:40.737Z,957.49
2017-09-16T19:02:21.320Z,957.48
2017-09-16T19:03:01.897Z,957.49
2017-09-16T19:03:42.470Z,957.49
2017-09-16T19:04:23.053Z,957.46
2017-09-16T19:05:03.639Z,957.49
2017-09-16T19:05:44.223Z,957.45
2017-09-16T19:06:24.810Z,957.44
2017-09-16T19:07:05.381Z,957.47
2017-09-16T19:07:45.962Z,957.46
2017-09-16T19:08:26.545Z,957.45
2017-09-16T19:09:07.127Z,957.48
2017-09-16T19:09:47.718Z,957.48
2017-09-16T19:10:28.297Z,957.45
2017-09-16T19:11:08.873Z,957.46
2017-09-16T19:11:49.444Z,957.46
2017-09-16T19:12:30.024Z,957.47
2017-09-16T19:13:10.599Z,957.45
2017-09-16T19:13:51.191Z,957.45
2017-09-16T19:14:31.759Z,957.44
2017-09-16T19:15:12.346Z,957.43
2017-09-16T19:15:52.927Z,957.46
2017-09-16T19:16:33.494Z,957.44
2017-09-16T19:17:14.069Z,957.48
2017-09-16T19:17:54.642Z,957.44
2017-09-16T19:18:35.228Z,957.44
2017-09-16T19:19:15.809Z,957.48
2017-09-16T19:19:56.397Z,957.49
2017-09-16T19:20:36.977Z,957.46
2017-09-16T19:21:17.559Z,957.45
2017-09-16T19:21:58.145Z,957.45
2017-09-16T19:22:38.708Z,957.44
2017-09-16T19:23:19.292Z,957.45
2017-09-16T19:23:59.877Z,957.41
2017-09-16T19:24:40.448Z,957.43
2017-09-16T19:25:21.036Z,957.43
2017-09-16T19:26:01.622Z,957.41
2017-09-16T19:26:42.195Z,957.39
2017-09-16T19:27:22.774Z,957.39
2017-09-16T19:28:03.359Z,957.39
2017-09-16T19:28:43.940Z,957.36
2017-09-16T19:29:24.526Z,957.33
2017-09-16T19:30:05.110Z,957.36
2017-09-16T19:30:45.691Z,957.34
2017-09-16T19:31:26.281Z,957.37
2017-09-16T19:32:06.864Z,957.31
2017-09-16T19:32:47.441Z,957.38
2017-09-16T19:33:28.025Z,957.37
2017-09-16T19:34:08.608Z,957.4
2017-09-16T19:34:49.191Z,957.38
2017-09-16T19:35:29.773Z,957.39
2017-09-16T19:36:10.351Z,957.43
2017-09-16T19:36:50.939Z,957.43
2017-09-16T19:37:31.527Z,957.48
2017-09-16T19:38:12.114Z,957.48
2017-09-16T19:38:52.695Z,957.55
2017-09-16T19:39:33.276Z,957.54
2017-09-16T19:40:13.863Z,957.56
2017-09-16T19:40:54.432Z,957.55
2017-09-16T19:41:35.013Z,957.56
2017-09-16T19:42:15.627Z,957.54
2017-09-16T19:42:56.178Z,957.57
2017-09-16T19:43:36.761Z,957.6
2017-09-16T19:44:17.335Z,957.58
2017-09-16T19:44:57.923Z,957.56
2017-09-16T19:45:38.498Z,957.54
2017-09-16T19:46:19.093Z,957.57
2017-09-16T19:46:59.673Z,957.55
2017-09-16T19:47:40.257Z,957.55
2017-09-16T19:48:20.830Z,957.56
2017-09-16T19:49:01.413Z,957.52
2017-09-16T19:49:41.993Z,957.5
2017-09-16T19:50:22.576Z,957.51
2017-09-16T19:51:03.167Z,957.5
2017-09-16T19:51:43.738Z,957.55
2017-09-16T19:52:24.308Z,957.55
2017-09-16T19:53:04.891Z,957.51
2017-09-16T19:53:45.462Z,957.54
2017-09-16T19:54:26.052Z,957.54
2017-09-16T19:55:06.634Z,957.58
2017-09-16T19:55:47.226Z,957.53
2017-09-16T19:56:27.800Z,957.55
2017-09-16T19:57:08.373Z,957.58
2017-09-16T19:57:48.951Z,957.54
2017-09-16T19:58:29.532Z,957.55
2017-09-16T19:59:10.116Z,957.56
2017-09-16T19:59:50.700Z,957.51
2017-09-16T20:00:31.284Z,957.51
2017-09-16T20:01:11.870Z,957.6
2017-09-16T20:01:52.460Z,957.57
2017-09-16T20:02:33.042Z,957.55
2017-09-16T20:03:13.631Z,957.58
2017-09-16T20:03:54.210Z,957.65
2017-09-16T20:04:34.797Z,957.6
2017-09-16T20:05:15.381Z,957.63
2017-09-16T20:05:55.964Z,957.64
2017-09-16T20:06:36.546Z,957.63
2017-09-16T20:07:17.126Z,957.67
2017-09-16T20:07:57.711Z,957.64
2017-09-16T20:08:38.291Z,957.64
2017-09-16T20:09:18.872Z,957.64
2017-09-16T20:09:59.461Z,957.66
2017-09-16T20:10:40.055Z,957.66
2017-09-16T20:11:20.628Z,957.66
2017-09-16T20:12:01.212Z,957.67
2017-09-16T20:12:41.793Z,957.69
2017-09-16T20:13:22.382Z,957.69
2017-09-16T20:14:02.965Z,957.67
2017-09-16T20:14:43.534Z,957.68
2017-09-16T20:15:24.120Z,957.65
2017-09-16T20:16:04.704Z,957.65
2017-09-16T20:16:59.813Z,957.64
2017-09-16T20:17:40.400Z,957.63
2017-09-16T20:18:20.977Z,957.69
2017-09-16T20:19:01.561Z,957.66
2017-09-16T20:19:42.147Z,957.67
2017-09-16T20:20:22.732Z,957.69
2017-09-16T20:21:03.311Z,957.71
2017-09-16T20:21:43.896Z,957.71
2017-09-16T20:22:37.408Z,957.7
2017-09-16T20:23:17.995Z,957.7
2017-09-16T20:23:58.582Z,957.7
2017-09-16T20:24:39.162Z,957.72
2017-09-16T20:25:19.740Z,957.72
2017-09-16T20:26:00.330Z,957.69
2017-09-16T20:26:40.905Z,957.74
2017-09-16T20:27:21.487Z,957.73
2017-09-16T20:28:02.057Z,957.78
2017-09-16T20:28:42.645Z,957.77
2017-09-16T20:29:23.223Z,957.74
2017-09-16T20:30:03.808Z,957.75
2017-09-16T20:30:44.393Z,957.75
2017-09-16T20:31:24.972Z,957.75
2017-09-16T20:32:05.558Z,957.77
2017-09-16T20:32:46.140Z,957.78
2017-09-16T20:33:26.723Z,957.82
2017-09-16T20:34:07.294Z,957.85
2017-09-16T20:34:47.881Z,957.88
2017-09-16T20:35:28.462Z,957.85
2017-09-16T20:36:09.048Z,957.9
2017-09-16T20:36:49.627Z,957.89
2017-09-16T20:37:30.203Z,957.97
2017-09-16T20:38:10.793Z,957.93
2017-09-16T20:38:51.379Z,957.92
2017-09-16T20:39:31.963Z,957.97
2017-09-16T20:40:12.546Z,957.91
2017-09-16T20:40:53.130Z,957.94
2017-09-16T20:41:33.712Z,957.9
2017-09-16T20:42:14.296Z,957.92
2017-09-16T20:42:54.887Z,957.88
2017-09-16T20:43:35.474Z,957.89
2017-09-16T20:44:16.057Z,957.84
2017-09-16T20:44:56.637Z,957.82
2017-09-16T20:45:37.222Z,957.81
2017-09-16T20:46:17.803Z,957.78
2017-09-16T20:46:58.388Z,957.78
2017-09-16T20:47:38.975Z,957.79
2017-09-16T20:48:19.568Z,957.77
2017-09-16T20:49:00.155Z,957.76
2017-09-16T20:49:40.737Z,957.77
2017-09-16T20:50:21.321Z,957.75
2017-09-16T20:51:01.905Z,957.74
2017-09-16T20:51:42.485Z,957.74
2017-09-16T20:52:23.072Z,957.75
2017-09-16T20:53:03.661Z,957.7
2017-09-16T20:53:44.242Z,957.77
2017-09-16T20:54:24.830Z,957.77
2017-09-16T20:55:05.415Z,957.74
2017-09-16T20:55:46.000Z,957.73
2017-09-16T20:56:26.572Z,957.75
2017-09-16T20:57:07.153Z,957.76
2017-09-16T20:57:47.734Z,957.75
2017-09-16T20:59:45.473Z,957.71
2017-09-16T21:00:26.057Z,957.7
2017-09-16T21:01:06.641Z,957.69
2017-09-16T21:01:47.233Z,957.66
2017-09-16T21:02:27.806Z,957.63
2017-09-16T21:03:08.389Z,957.63
2017-09-16T21:03:48.965Z,957.6
2017-09-16T21:04:29.543Z,957.57
2017-09-16T21:05:10.121Z,957.59
2017-09-16T21:05:50.704Z,957.55
2017-09-16T21:06:31.272Z,957.58
2017-09-16T21:07:11.854Z,957.59
2017-09-16T21:07:52.426Z,957.59
2017-09-16T21:08:33.009Z,957.6
2017-09-16T21:09:13.585Z,957.64
2017-09-16T21:09:54.168Z,957.62
2017-09-16T21:10:34.759Z,957.6
2017-09-16T21:11:15.333Z,957.6
2017-09-16T21:11:55.903Z,957.63
2017-09-16T21:12:36.493Z,957.62
2017-09-16T21:13:17.069Z,957.66
2017-09-16T21:13:57.650Z,957.65
2017-09-16T21:14:38.225Z,957.68
2017-09-16T21:15:18.801Z,957.66
2017-09-16T21:15:59.377Z,957.67
2017-09-16T21:16:39.950Z,957.68
2017-09-16T21:17:20.533Z,957.71
2017-09-16T21:18:01.103Z,957.72
2017-09-16T21:18:41.683Z,957.71
2017-09-16T21:19:22.271Z,957.74
2017-09-16T21:20:02.849Z,957.79
2017-09-16T21:20:43.418Z,957.77
2017-09-16T21:21:23.991Z,957.79
2017-09-16T21:22:04.571Z,957.82
2017-09-16T21:22:45.152Z,957.85
2017-09-16T21:23:25.725Z,957.81
2017-09-16T21:24:06.310Z,957.86
2017-09-16T21:24:46.890Z,957.89
2017-09-16T21:25:27.467Z,957.87
2017-09-16T21:26:08.050Z,957.85
2017-09-16T21:26:48.631Z,957.84
2017-09-16T21:27:29.210Z,957.84
2017-09-16T21:28:09.790Z,957.84
2017-09-16T21:28:50.371Z,957.88
2017-09-16T21:29:30.943Z,957.86
2017-09-16T21:30:11.539Z,957.9
2017-09-16T21:30:52.114Z,957.88
2017-09-16T21:31:32.701Z,957.88
2017-09-16T21:32:13.283Z,957.86
2017-09-16T21:32:53.853Z,957.83
2017-09-16T21:33:46.334Z,957.82
2017-09-16T21:34:26.918Z,957.85
2017-09-16T21:35:07.500Z,957.83
2017-09-16T21:35:48.072Z,957.84
2017-09-16T21:36:28.656Z,957.84
2017-09-16T21:37:09.235Z,957.81
2017-09-16T21:37:49.816Z,957.82
2017-09-16T21:38:30.394Z,957.81
2017-09-16T21:39:10.976Z,957.82
2017-09-16T21:39:51.563Z,957.8
2017-09-16T21:40:32.139Z,957.79
2017-09-16T21:41:12.719Z,957.77
2017-09-16T21:41:53.292Z,957.82
2017-09-16T21:42:33.877Z,957.84
2017-09-16T21:43:14.449Z,957.81
2017-09-16T21:43:55.026Z,957.81
2017-09-16T21:44:35.601Z,957.81
2017-09-16T21:45:16.182Z,957.85
2017-09-16T21:45:56.761Z,957.82
2017-09-16T21:46:37.340Z,957.83
2017-09-16T21:47:17.920Z,957.88
2017-09-16T21:47:58.497Z,957.88
2017-09-16T21:48:39.069Z,957.87
2017-09-16T21:49:19.654Z,957.91
2017-09-16T21:50:00.229Z,957.95
2017-09-16T21:50:40.807Z,957.94
2017-09-16T21:51:21.389Z,957.93
2017-09-16T21:52:01.969Z,957.93
2017-09-16T21:52:42.547Z,957.89
2017-09-16T21:53:23.120Z,957.88
2017-09-16T21:54:03.706Z,957.91
2017-09-16T21:54:44.286Z,957.89
2017-09-16T21:55:24.867Z,957.89
2017-09-16T21:56:05.441Z,957.92
2017-09-16T21:56:46.013Z,957.9
2017-09-16T21:57:26.601Z,957.92
2017-09-16T21:58:07.179Z,957.92
2017-09-16T21:58:47.757Z,957.92
2017-09-16T21:59:28.336Z,957.94
2017-09-16T22:00:08.921Z,957.98
2017-09-16T22:00:49.506Z,957.96
2017-09-16T22:01:30.075Z,957.98
2017-09-16T22:02:10.641Z,957.98
2017-09-16T22:02:51.217Z,958
2017-09-16T22:03:31.789Z,958.01
2017-09-16T22:04:12.379Z,958.02
2017-09-16T22:04:52.961Z,958.02
2017-09-16T22:05:33.544Z,958.01
2017-09-16T22:06:14.124Z,958.02
2017-09-16T22:06:54.708Z,958.01
2017-09-16T22:07:35.291Z,957.96
2017-09-16T22:08:15.866Z,957.97
2017-09-16T22:08:56.441Z,957.96
2017-09-16T22:09:37.017Z,957.94
2017-09-16T22:10:17.607Z,957.94
2017-09-16T22:10:58.190Z,957.9
2017-09-16T22:11:38.772Z,957.91
2017-09-16T22:12:19.354Z,957.9
2017-09-16T22:12:59.934Z,957.88
2017-09-16T22:13:40.514Z,957.88
2017-09-16T22:14:21.095Z,957.9
2017-09-16T22:15:01.675Z,957.91
2017-09-16T22:15:42.259Z,957.88
2017-09-16T22:16:22.844Z,957.89
2017-09-16T22:17:03.418Z,957.89
2017-09-16T22:17:43.995Z,957.89
2017-09-16T22:18:24.578Z,957.88
2017-09-16T22:19:05.164Z,957.88
2017-09-16T22:19:45.747Z,957.83
2017-09-16T22:20:26.335Z,957.85
2017-09-16T22:21:06.932Z,957.87
2017-09-16T22:21:47.506Z,957.87
2017-09-16T22:22:28.081Z,957.85
2017-09-16T22:23:08.663Z,957.87
2017-09-16T22:23:49.244Z,957.87
2017-09-16T22:24:29.825Z,957.87
2017-09-16T22:25:10.407Z,957.86
2017-09-16T22:25:50.989Z,957.88
2017-09-16T22:26:31.569Z,957.88
2017-09-16T22:27:12.161Z,957.85
2017-09-16T22:27:52.719Z,957.85
2017-09-16T22:28:33.304Z,957.82
2017-09-16T22:29:13.883Z,957.82
2017-09-16T22:29:54.472Z,957.79
2017-09-16T22:30:35.039Z,957.8
2017-09-16T22:31:15.624Z,957.81
2017-09-16T22:31:56.196Z,957.83
2017-09-16T22:32:36.772Z,957.78
2017-09-16T22:33:17.356Z,957.79
2017-09-16T22:33:57.938Z,957.76
2017-09-16T22:34:38.519Z,957.76
2017-09-16T22:35:19.094Z,957.75
2017-09-16T22:35:59.659Z,957.77
2017-09-16T22:36:40.240Z,957.69
2017-09-16T22:37:20.823Z,957.73
2017-09-16T22:38:01.394Z,957.73
2017-09-16T22:38:41.976Z,957.71
2017-09-16T22:39:22.542Z,957.72
2017-09-16T22:40:03.127Z,957.76
2017-09-16T22:40:43.713Z,957.77
2017-09-16T22:41:24.280Z,957.74
2017-09-16T22:42:04.851Z,957.81
2017-09-16T22:42:45.429Z,957.8
2017-09-16T22:43:26.005Z,957.79
2017-09-16T22:44:06.567Z,957.79
2017-09-16T22:44:47.151Z,957.83
2017-09-16T22:45:27.741Z,957.81
2017-09-16T22:46:08.311Z,957.85
2017-09-16T22:46:48.902Z,957.86
2017-09-16T22:47:29.467Z,957.84
2017-09-16T22:48:10.045Z,957.86
2017-09-16T22:48:50.627Z,957.91
2017-09-16T22:49:31.206Z,957.87
2017-09-16T22:50:11.799Z,957.86
2017-09-16T22:50:52.376Z,957.84
2017-09-16T22:51:32.949Z,957.87
2017-09-16T22:52:13.522Z,957.84
2017-09-16T22:52:54.110Z,957.83
2017-09-16T22:53:34.692Z,957.83
2017-09-16T22:54:15.267Z,957.85
2017-09-16T22:54:55.850Z,957.83
2017-09-16T22:55:36.434Z,957.84
2017-09-16T22:56:17.008Z,957.85
2017-09-16T22:56:57.589Z,957.86
2017-09-16T22:57:38.178Z,957.82
2017-09-16T22:58:18.761Z,957.8
2017-09-16T22:58:59.342Z,957.82
2017-09-16T22:59:39.925Z,957.82
2017-09-16T23:00:20.507Z,957.81
2017-09-16T23:01:01.088Z,957.77
2017-09-16T23:01:41.657Z,957.75
2017-09-16T23:02:22.245Z,957.73
2017-09-16T23:03:02.826Z,957.68
2017-09-16T23:03:43.400Z,957.66
2017-09-16T23:04:23.970Z,957.66
2017-09-16T23:05:04.547Z,957.69
2017-09-16T23:05:45.122Z,957.63
2017-09-16T23:06:25.703Z,957.63
2017-09-16T23:07:06.290Z,957.65
2017-09-16T23:07:46.874Z,957.65
2017-09-16T23:08:27.455Z,957.68
2017-09-16T23:09:08.032Z,957.73
2017-09-16T23:09:48.610Z,957.71
2017-09-16T23:10:29.185Z,957.72
2017-09-16T23:11:09.771Z,957.69
2017-09-16T23:11:50.346Z,957.73
2017-09-16T23:12:30.920Z,957.72
2017-09-16T23:14:23.542Z,957.75
2017-09-16T23:15:04.114Z,957.78
2017-09-16T23:15:44.689Z,957.73
2017-09-16T23:16:25.261Z,957.74
2017-09-16T23:17:05.849Z,957.71
2017-09-16T23:17:46.421Z,957.77
2017-09-16T23:18:26.994Z,957.68
2017-09-16T23:19:07.569Z,957.72
2017-09-16T23:19:48.142Z,957.75
2017-09-16T23:20:28.720Z,957.68
2017-09-16T23:21:09.293Z,957.7
2017-09-16T23:21:49.868Z,957.71
2017-09-16T23:22:30.452Z,957.68
2017-09-16T23:23:11.025Z,957.7
2017-09-16T23:23:51.607Z,957.68
2017-09-16T23:24:32.184Z,957.69
2017-09-16T23:25:12.768Z,957.65
2017-09-16T23:25:53.350Z,957.61
2017-09-16T23:26:33.919Z,957.6
2017-09-16T23:27:14.501Z,957.6
2017-09-16T23:27:55.073Z,957.6
2017-09-16T23:28:35.636Z,957.59
2017-09-16T23:29:16.214Z,957.55
2017-09-16T23:29:56.805Z,957.52
2017-09-16T23:30:37.384Z,957.58
2017-09-16T23:31:17.968Z,957.51
2017-09-16T23:31:58.544Z,957.51
2017-09-16T23:32:39.123Z,957.48
2017-09-16T23:33:19.696Z,957.45
2017-09-16T23:34:00.279Z,957.46
2017-09-16T23:34:40.861Z,957.42
2017-09-16T23:35:21.438Z,957.39
2017-09-16T23:36:02.017Z,957.39
2017-09-16T23:36:42.596Z,957.37
2017-09-16T23:37:23.179Z,957.36
2017-09-16T23:38:03.755Z,957.36
2017-09-16T23:38:44.334Z,957.34
2017-09-16T23:39:24.920Z,957.33
2017-09-16T23:40:05.501Z,957.35
2017-09-16T23:40:46.077Z,957.36
2017-09-16T23:41:26.652Z,957.34
2017-09-16T23:42:07.235Z,957.33
2017-09-16T23:42:47.816Z,957.36
2017-09-16T23:43:28.391Z,957.32
2017-09-16T23:44:08.974Z,957.31
2017-09-16T23:44:49.556Z,957.27
2017-09-16T23:45:30.134Z,957.29
2017-09-16T23:46:10.710Z,957.24
2017-09-16T23:46:51.290Z,957.25
2017-09-16T23:47:31.875Z,957.25
2017-09-16T23:48:12.446Z,957.29
2017-09-16T23:48:53.026Z,957.3
2017-09-16T23:49:33.608Z,957.25
2017-09-16T23:50:14.189Z,957.27
2017-09-16T23:50:54.760Z,957.25
2017-09-16T23:51:35.350Z,957.23
2017-09-16T23:52:15.914Z,957.26
2017-09-16T23:52:56.495Z,957.27
2017-09-16T23:53:37.065Z,957.27
2017-09-16T23:54:17.656Z,957.23
2017-09-16T23:54:58.235Z,957.29
2017-09-16T23:55:38.808Z,957.25
2017-09-16T23:56:19.383Z,957.25
2017-09-16T23:56:59.953Z,957.28
2017-09-16T23:57:40.531Z,957.27
2017-09-16T23:58:21.090Z,957.25
2017-09-16T23:59:01.667Z,957.23
2017-09-16T23:59:42.249Z,957.27
